sensor_id;sensor_type;location;lat;lon;timestamp;pressure;altitude;pressure_sealevel;temperature;humidity
64844;BME280;51310;52.198;5.422;2022-10-03T00:00:27;102314.63;;;8.40;100.00
64844;BME280;51310;52.198;5.422;2022-10-03T00:06:03;102320.00;;;8.41;100.00
64844;BME280;51310;52.198;5.422;2022-10-03T00:12:40;102319.75;;;8.40;100.00
64844;BME280;51310;52.198;5.422;2022-10-03T00:15:50;102319.75;;;8.40;100.00
64844;BME280;51310;52.198;5.422;2022-10-03T00:19:36;102333.03;;;8.43;100.00
64844;BME280;51310;52.198;5.422;2022-10-03T00:36:41;102337.44;;;8.64;100.00
64844;BME280;51310;52.198;5.422;2022-10-03T00:51:44;102345.38;;;8.53;100.00
64844;BME280;51310;52.198;5.422;2022-10-03T00:58:07;102351.31;;;8.59;100.00
64844;BME280;51310;52.198;5.422;2022-10-03T01:00:50;102358.84;;;8.57;100.00
64844;BME280;51310;52.198;5.422;2022-10-03T01:03:49;102359.47;;;8.49;100.00
64844;BME280;51310;52.198;5.422;2022-10-03T01:07:05;102365.47;;;8.62;100.00
64844;BME280;51310;52.198;5.422;2022-10-03T01:10:11;102368.69;;;8.74;100.00
64844;BME280;51310;52.198;5.422;2022-10-03T01:22:26;102376.06;;;8.58;100.00
64844;BME280;51310;52.198;5.422;2022-10-03T01:25:24;102374.63;;;8.60;100.00
64844;BME280;51310;52.198;5.422;2022-10-03T01:31:40;102373.19;;;8.30;100.00
64844;BME280;51310;52.198;5.422;2022-10-03T01:34:44;102375.84;;;8.24;100.00
64844;BME280;51310;52.198;5.422;2022-10-03T01:37:37;102378.88;;;8.14;100.00
64844;BME280;51310;52.198;5.422;2022-10-03T01:40:18;102380.00;;;8.16;100.00
64844;BME280;51310;52.198;5.422;2022-10-03T01:43:11;102380.03;;;8.36;100.00
64844;BME280;51310;52.198;5.422;2022-10-03T01:45:56;102374.34;;;8.52;100.00
64844;BME280;51310;52.198;5.422;2022-10-03T01:49:06;102378.38;;;8.37;100.00
64844;BME280;51310;52.198;5.422;2022-10-03T01:51:59;102378.84;;;8.27;100.00
64844;BME280;51310;52.198;5.422;2022-10-03T01:57:44;102388.19;;;8.14;100.00
64844;BME280;51310;52.198;5.422;2022-10-03T02:00:22;102382.66;;;8.11;100.00
64844;BME280;51310;52.198;5.422;2022-10-03T02:12:21;102387.13;;;8.32;100.00
64844;BME280;51310;52.198;5.422;2022-10-03T02:14:58;102388.41;;;8.15;100.00
64844;BME280;51310;52.198;5.422;2022-10-03T02:17:55;102398.47;;;8.01;100.00
64844;BME280;51310;52.198;5.422;2022-10-03T02:20:39;102402.47;;;7.99;100.00
64844;BME280;51310;52.198;5.422;2022-10-03T02:23:37;102393.03;;;8.05;100.00
64844;BME280;51310;52.198;5.422;2022-10-03T02:26:51;102386.88;;;8.10;100.00
64844;BME280;51310;52.198;5.422;2022-10-03T02:30:09;102390.75;;;8.14;100.00
64844;BME280;51310;52.198;5.422;2022-10-03T02:36:24;102395.16;;;7.82;100.00
64844;BME280;51310;52.198;5.422;2022-10-03T02:57:50;102384.41;;;7.59;100.00
64844;BME280;51310;52.198;5.422;2022-10-03T03:01:02;102398.03;;;7.65;100.00
64844;BME280;51310;52.198;5.422;2022-10-03T03:04:43;102397.72;;;7.82;100.00
64844;BME280;51310;52.198;5.422;2022-10-03T03:14:09;102402.72;;;7.49;100.00
64844;BME280;51310;52.198;5.422;2022-10-03T03:16:59;102411.06;;;7.41;100.00
64844;BME280;51310;52.198;5.422;2022-10-03T03:20:06;102408.78;;;7.37;100.00
64844;BME280;51310;52.198;5.422;2022-10-03T03:23:49;102408.97;;;7.51;100.00
64844;BME280;51310;52.198;5.422;2022-10-03T03:31:34;102422.53;;;7.63;100.00
64844;BME280;51310;52.198;5.422;2022-10-03T03:34:57;102429.09;;;7.74;100.00
64844;BME280;51310;52.198;5.422;2022-10-03T03:40:39;102424.03;;;7.43;100.00
64844;BME280;51310;52.198;5.422;2022-10-03T03:43:35;102423.13;;;7.42;100.00
64844;BME280;51310;52.198;5.422;2022-10-03T03:49:26;102411.56;;;7.26;100.00
64844;BME280;51310;52.198;5.422;2022-10-03T03:56:01;102422.91;;;7.28;100.00
64844;BME280;51310;52.198;5.422;2022-10-03T03:59:40;102413.47;;;7.21;100.00
64844;BME280;51310;52.198;5.422;2022-10-03T04:05:37;102413.34;;;7.14;100.00
64844;BME280;51310;52.198;5.422;2022-10-03T04:11:43;102419.00;;;7.11;100.00
64844;BME280;51310;52.198;5.422;2022-10-03T04:28:04;102414.66;;;6.92;100.00
64844;BME280;51310;52.198;5.422;2022-10-03T04:34:25;102429.91;;;6.97;100.00
64844;BME280;51310;52.198;5.422;2022-10-03T04:47:54;102434.91;;;6.90;100.00
64844;BME280;51310;52.198;5.422;2022-10-03T04:54:47;102438.50;;;6.85;100.00
64844;BME280;51310;52.198;5.422;2022-10-03T04:57:40;102440.13;;;6.85;100.00
64844;BME280;51310;52.198;5.422;2022-10-03T05:00:49;102438.50;;;6.85;100.00
64844;BME280;51310;52.198;5.422;2022-10-03T05:03:42;102442.53;;;6.77;100.00
64844;BME280;51310;52.198;5.422;2022-10-03T05:09:58;102434.28;;;6.86;100.00
64844;BME280;51310;52.198;5.422;2022-10-03T05:13:04;102444.13;;;6.83;100.00
64844;BME280;51310;52.198;5.422;2022-10-03T05:16:13;102441.75;;;6.84;100.00
64844;BME280;51310;52.198;5.422;2022-10-03T05:31:30;102455.97;;;6.82;100.00
64844;BME280;51310;52.198;5.422;2022-10-03T05:34:26;102448.09;;;6.81;100.00
64844;BME280;51310;52.198;5.422;2022-10-03T05:37:19;102456.47;;;6.80;100.00
64844;BME280;51310;52.198;5.422;2022-10-03T05:45:47;102452.66;;;7.02;100.00
64844;BME280;51310;52.198;5.422;2022-10-03T05:52:42;102472.31;;;6.95;100.00
64844;BME280;51310;52.198;5.422;2022-10-03T06:11:55;102467.53;;;7.04;100.00
64844;BME280;51310;52.198;5.422;2022-10-03T06:15:02;102468.25;;;7.16;100.00
64844;BME280;51310;52.198;5.422;2022-10-03T06:17:55;102473.09;;;7.20;100.00
64844;BME280;51310;52.198;5.422;2022-10-03T06:21:38;102470.75;;;7.22;100.00
64844;BME280;51310;52.198;5.422;2022-10-03T06:35:13;102481.75;;;7.59;100.00
64844;BME280;51310;52.198;5.422;2022-10-03T06:50:41;102482.59;;;8.04;100.00
64844;BME280;51310;52.198;5.422;2022-10-03T06:53:48;102492.50;;;8.20;100.00
64844;BME280;51310;52.198;5.422;2022-10-03T07:00:11;102495.16;;;8.53;100.00
64844;BME280;51310;52.198;5.422;2022-10-03T07:15:46;102492.38;;;9.44;100.00
64844;BME280;51310;52.198;5.422;2022-10-03T07:18:42;102498.56;;;9.59;100.00
64844;BME280;51310;52.198;5.422;2022-10-03T08:00:07;102510.13;;;12.31;100.00
64844;BME280;51310;52.198;5.422;2022-10-03T08:06:30;102508.38;;;12.53;100.00
64844;BME280;51310;52.198;5.422;2022-10-03T08:12:45;102516.50;;;12.49;100.00
64844;BME280;51310;52.198;5.422;2022-10-03T08:34:46;102537.91;;;12.48;100.00
64844;BME280;51310;52.198;5.422;2022-10-03T08:40:54;102534.84;;;13.04;100.00
64844;BME280;51310;52.198;5.422;2022-10-03T08:50:15;102552.75;;;13.32;100.00
64844;BME280;51310;52.198;5.422;2022-10-03T08:53:20;102547.03;;;13.35;100.00
64844;BME280;51310;52.198;5.422;2022-10-03T08:56:15;102545.09;;;13.48;100.00
64844;BME280;51310;52.198;5.422;2022-10-03T09:32:02;102542.78;;;14.13;96.65
64844;BME280;51310;52.198;5.422;2022-10-03T09:44:42;102548.72;;;14.44;91.88
64844;BME280;51310;52.198;5.422;2022-10-03T09:51:04;102538.09;;;14.50;92.83
64844;BME280;51310;52.198;5.422;2022-10-03T09:57:40;102536.28;;;14.65;91.46
64844;BME280;51310;52.198;5.422;2022-10-03T10:00:22;102532.69;;;14.55;91.49
64844;BME280;51310;52.198;5.422;2022-10-03T10:03:11;102527.09;;;14.60;90.09
64844;BME280;51310;52.198;5.422;2022-10-03T10:12:44;102532.84;;;15.22;89.66
64844;BME280;51310;52.198;5.422;2022-10-03T10:22:02;102538.50;;;15.27;88.50
64844;BME280;51310;52.198;5.422;2022-10-03T10:24:55;102538.59;;;15.44;87.30
64844;BME280;51310;52.198;5.422;2022-10-03T10:35:01;102542.47;;;15.81;83.78
64844;BME280;51310;52.198;5.422;2022-10-03T10:41:19;102535.16;;;15.86;81.41
64844;BME280;51310;52.198;5.422;2022-10-03T10:51:26;102530.63;;;16.09;81.93
64844;BME280;51310;52.198;5.422;2022-10-03T11:04:17;102539.28;;;15.92;80.18
64844;BME280;51310;52.198;5.422;2022-10-03T11:20:32;102533.47;;;15.86;83.61
64844;BME280;51310;52.198;5.422;2022-10-03T11:26:57;102527.84;;;15.90;83.09
64844;BME280;51310;52.198;5.422;2022-10-03T11:33:32;102532.22;;;15.83;83.59
64844;BME280;51310;52.198;5.422;2022-10-03T11:36:51;102528.47;;;15.96;83.92
64844;BME280;51310;52.198;5.422;2022-10-03T11:43:40;102517.81;;;16.46;79.96
64844;BME280;51310;52.198;5.422;2022-10-03T11:52:07;102515.34;;;16.73;80.95
64844;BME280;51310;52.198;5.422;2022-10-03T11:55:29;102518.28;;;16.85;79.42
64844;BME280;51310;52.198;5.422;2022-10-03T11:58:15;102522.84;;;16.79;79.38
64844;BME280;51310;52.198;5.422;2022-10-03T12:01:46;102514.44;;;16.73;78.63
64844;BME280;51310;52.198;5.422;2022-10-03T12:07:44;102516.75;;;16.87;77.00
64844;BME280;51310;52.198;5.422;2022-10-03T12:10:53;102516.28;;;16.74;79.06
64844;BME280;51310;52.198;5.422;2022-10-03T12:20:01;102494.88;;;16.85;78.59
64844;BME280;51310;52.198;5.422;2022-10-03T12:22:49;102504.66;;;16.96;77.62
64844;BME280;51310;52.198;5.422;2022-10-03T12:25:22;102502.13;;;17.24;73.76
64844;BME280;51310;52.198;5.422;2022-10-03T12:28:12;102491.22;;;16.83;75.31
64844;BME280;51310;52.198;5.422;2022-10-03T12:31:14;102501.25;;;17.06;75.18
64844;BME280;51310;52.198;5.422;2022-10-03T12:34:07;102499.69;;;17.17;75.79
64844;BME280;51310;52.198;5.422;2022-10-03T12:40:23;102485.22;;;16.67;75.24
64844;BME280;51310;52.198;5.422;2022-10-03T12:43:46;102485.69;;;16.71;76.16
64844;BME280;51310;52.198;5.422;2022-10-03T12:46:41;102484.00;;;16.98;75.48
64844;BME280;51310;52.198;5.422;2022-10-03T12:49:45;102489.59;;;17.20;75.36
64844;BME280;51310;52.198;5.422;2022-10-03T12:52:30;102474.63;;;17.09;76.14
64844;BME280;51310;52.198;5.422;2022-10-03T12:55:34;102475.97;;;17.14;73.98
64844;BME280;51310;52.198;5.422;2022-10-03T13:03:51;102478.00;;;16.99;69.32
64844;BME280;51310;52.198;5.422;2022-10-03T13:18:56;102477.63;;;17.22;72.19
64844;BME280;51310;52.198;5.422;2022-10-03T13:22:01;102469.47;;;17.28;69.73
64844;BME280;51310;52.198;5.422;2022-10-03T13:24:37;102463.31;;;16.99;70.70
64844;BME280;51310;52.198;5.422;2022-10-03T13:27:23;102468.81;;;17.02;70.71
64844;BME280;51310;52.198;5.422;2022-10-03T13:30:27;102470.31;;;17.18;72.93
64844;BME280;51310;52.198;5.422;2022-10-03T13:32:59;102462.22;;;17.42;72.95
64844;BME280;51310;52.198;5.422;2022-10-03T13:39:04;102466.03;;;17.10;75.00
64844;BME280;51310;52.198;5.422;2022-10-03T13:44:43;102459.63;;;17.06;74.79
64844;BME280;51310;52.198;5.422;2022-10-03T13:47:52;102458.72;;;16.97;75.76
64844;BME280;51310;52.198;5.422;2022-10-03T13:50:47;102458.31;;;16.75;76.37
64844;BME280;51310;52.198;5.422;2022-10-03T13:53:53;102458.31;;;16.75;77.47
64844;BME280;51310;52.198;5.422;2022-10-03T13:56:46;102451.13;;;16.81;77.35
64844;BME280;51310;52.198;5.422;2022-10-03T13:59:39;102458.47;;;16.85;78.24
64844;BME280;51310;52.198;5.422;2022-10-03T14:02:48;102460.00;;;16.66;78.55
64844;BME280;51310;52.198;5.422;2022-10-03T14:06:14;102458.34;;;16.49;79.07
64844;BME280;51310;52.198;5.422;2022-10-03T14:12:27;102442.59;;;16.47;79.64
64844;BME280;51310;52.198;5.422;2022-10-03T14:21:29;102436.47;;;16.47;80.54
64844;BME280;51310;52.198;5.422;2022-10-03T14:31:14;102425.34;;;16.22;83.08
64844;BME280;51310;52.198;5.422;2022-10-03T14:33:45;102428.88;;;16.22;81.79
64844;BME280;51310;52.198;5.422;2022-10-03T14:40:37;102427.19;;;16.05;81.52
64844;BME280;51310;52.198;5.422;2022-10-03T14:43:44;102420.00;;;15.94;81.97
64844;BME280;51310;52.198;5.422;2022-10-03T14:46:23;102418.59;;;15.80;82.82
64844;BME280;51310;52.198;5.422;2022-10-03T14:48:57;102422.25;;;15.73;82.43
64844;BME280;51310;52.198;5.422;2022-10-03T14:51:40;102419.97;;;15.76;82.33
64844;BME280;51310;52.198;5.422;2022-10-03T14:54:21;102425.50;;;15.88;82.46
64844;BME280;51310;52.198;5.422;2022-10-03T14:56:50;102422.88;;;15.88;83.41
64844;BME280;51310;52.198;5.422;2022-10-03T15:01:56;102418.44;;;15.87;83.79
64844;BME280;51310;52.198;5.422;2022-10-03T15:04:43;102407.47;;;15.81;82.67
64844;BME280;51310;52.198;5.422;2022-10-03T15:07:12;102411.44;;;16.12;80.94
64844;BME280;51310;52.198;5.422;2022-10-03T15:12:17;102406.41;;;15.88;79.27
64844;BME280;51310;52.198;5.422;2022-10-03T15:15:29;102397.66;;;15.87;77.63
64844;BME280;51310;52.198;5.422;2022-10-03T15:18:00;102394.03;;;16.11;76.80
64844;BME280;51310;52.198;5.422;2022-10-03T15:20:38;102391.13;;;15.91;75.28
64844;BME280;51310;52.198;5.422;2022-10-03T15:23:21;102392.63;;;15.80;74.87
64844;BME280;51310;52.198;5.422;2022-10-03T15:25:59;102391.69;;;15.71;76.54
64844;BME280;51310;52.198;5.422;2022-10-03T15:28:35;102385.88;;;15.65;76.03
64844;BME280;51310;52.198;5.422;2022-10-03T15:31:17;102388.16;;;15.62;76.40
64844;BME280;51310;52.198;5.422;2022-10-03T15:33:52;102383.84;;;15.36;78.18
64844;BME280;51310;52.198;5.422;2022-10-03T15:36:28;102375.88;;;15.34;77.92
64844;BME280;51310;52.198;5.422;2022-10-03T15:39:05;102378.94;;;15.30;78.04
64844;BME280;51310;52.198;5.422;2022-10-03T15:41:53;102382.78;;;15.51;77.63
64844;BME280;51310;52.198;5.422;2022-10-03T15:44:28;102385.41;;;15.51;77.94
64844;BME280;51310;52.198;5.422;2022-10-03T15:49:57;102376.31;;;15.30;79.42
64844;BME280;51310;52.198;5.422;2022-10-03T15:52:43;102367.50;;;15.37;79.78
64844;BME280;51310;52.198;5.422;2022-10-03T15:55:36;102366.59;;;15.36;79.15
64844;BME280;51310;52.198;5.422;2022-10-03T15:58:31;102361.25;;;15.44;78.95
64844;BME280;51310;52.198;5.422;2022-10-03T16:01:26;102362.47;;;15.47;77.97
64844;BME280;51310;52.198;5.422;2022-10-03T16:04:02;102363.09;;;15.45;78.19
64844;BME280;51310;52.198;5.422;2022-10-03T16:06:36;102355.56;;;15.30;79.32
64844;BME280;51310;52.198;5.422;2022-10-03T16:09:25;102354.06;;;15.41;78.86
64844;BME280;51310;52.198;5.422;2022-10-03T16:15:22;102356.50;;;15.39;79.82
64844;BME280;51310;52.198;5.422;2022-10-03T16:19:05;102356.06;;;15.44;80.43
64844;BME280;51310;52.198;5.422;2022-10-03T16:25:17;102350.84;;;15.35;80.36
64844;BME280;51310;52.198;5.422;2022-10-03T16:27:55;102347.53;;;14.94;82.03
64844;BME280;51310;52.198;5.422;2022-10-03T16:30:56;102349.41;;;15.04;82.40
64844;BME280;51310;52.198;5.422;2022-10-03T16:33:35;102354.78;;;14.81;84.91
64844;BME280;51310;52.198;5.422;2022-10-03T16:36:09;102342.28;;;14.76;84.26
64844;BME280;51310;52.198;5.422;2022-10-03T16:38:55;102342.41;;;14.69;85.24
64844;BME280;51310;52.198;5.422;2022-10-03T16:41:26;102341.84;;;14.81;84.39
64844;BME280;51310;52.198;5.422;2022-10-03T16:44:22;102334.41;;;14.59;85.60
64844;BME280;51310;52.198;5.422;2022-10-03T16:46:56;102335.69;;;14.47;86.63
64844;BME280;51310;52.198;5.422;2022-10-03T16:52:39;102332.06;;;14.29;88.02
64844;BME280;51310;52.198;5.422;2022-10-03T16:55:21;102325.50;;;14.24;88.55
64844;BME280;51310;52.198;5.422;2022-10-03T16:57:56;102324.50;;;14.14;89.56
64844;BME280;51310;52.198;5.422;2022-10-03T17:03:24;102336.06;;;14.09;90.06
64844;BME280;51310;52.198;5.422;2022-10-03T17:05:55;102322.81;;;14.06;89.92
64844;BME280;51310;52.198;5.422;2022-10-03T17:08:30;102318.66;;;14.00;90.80
64844;BME280;51310;52.198;5.422;2022-10-03T17:11:03;102324.06;;;13.94;92.28
64844;BME280;51310;52.198;5.422;2022-10-03T17:13:44;102328.47;;;13.95;92.23
64844;BME280;51310;52.198;5.422;2022-10-03T17:16:40;102328.84;;;13.98;92.12
64844;BME280;51310;52.198;5.422;2022-10-03T17:22:39;102324.19;;;13.87;93.96
64844;BME280;51310;52.198;5.422;2022-10-03T17:27:48;102306.72;;;13.77;95.86
64844;BME280;51310;52.198;5.422;2022-10-03T17:30:50;102300.66;;;13.77;96.33
64844;BME280;51310;52.198;5.422;2022-10-03T17:33:44;102308.25;;;13.75;96.26
64844;BME280;51310;52.198;5.422;2022-10-03T17:45:41;102323.34;;;13.47;97.91
64844;BME280;51310;52.198;5.422;2022-10-03T17:48:22;102319.53;;;13.44;98.10
64844;BME280;51310;52.198;5.422;2022-10-03T17:53:50;102313.41;;;13.11;100.00
64844;BME280;51310;52.198;5.422;2022-10-03T17:56:20;102311.63;;;12.87;100.00
64844;BME280;51310;52.198;5.422;2022-10-03T17:58:57;102319.81;;;12.76;100.00
64844;BME280;51310;52.198;5.422;2022-10-03T18:01:47;102315.81;;;12.71;100.00
64844;BME280;51310;52.198;5.422;2022-10-03T18:04:20;102311.91;;;12.75;100.00
64844;BME280;51310;52.198;5.422;2022-10-03T18:07:10;102308.06;;;12.71;100.00
64844;BME280;51310;52.198;5.422;2022-10-03T18:09:50;102303.78;;;12.71;100.00
64844;BME280;51310;52.198;5.422;2022-10-03T18:12:40;102305.28;;;12.69;100.00
64844;BME280;51310;52.198;5.422;2022-10-03T18:19:08;102301.50;;;12.59;100.00
64844;BME280;51310;52.198;5.422;2022-10-03T18:27:53;102314.19;;;12.41;100.00
64844;BME280;51310;52.198;5.422;2022-10-03T18:30:51;102307.53;;;12.43;100.00
64844;BME280;51310;52.198;5.422;2022-10-03T18:33:43;102307.50;;;12.50;100.00
64844;BME280;51310;52.198;5.422;2022-10-03T18:36:23;102303.47;;;12.45;100.00
64844;BME280;51310;52.198;5.422;2022-10-03T18:38:57;102306.44;;;12.41;100.00
64844;BME280;51310;52.198;5.422;2022-10-03T18:41:25;102292.09;;;12.36;100.00
64844;BME280;51310;52.198;5.422;2022-10-03T18:43:56;102294.22;;;12.24;100.00
64844;BME280;51310;52.198;5.422;2022-10-03T18:46:37;102284.25;;;12.27;100.00
64844;BME280;51310;52.198;5.422;2022-10-03T18:49:16;102282.63;;;12.21;100.00
64844;BME280;51310;52.198;5.422;2022-10-03T18:51:55;102294.84;;;12.15;100.00
64844;BME280;51310;52.198;5.422;2022-10-03T18:55:04;102290.19;;;12.19;100.00
64844;BME280;51310;52.198;5.422;2022-10-03T19:00:51;102274.50;;;12.25;100.00
64844;BME280;51310;52.198;5.422;2022-10-03T19:03:52;102280.38;;;12.24;100.00
64844;BME280;51310;52.198;5.422;2022-10-03T19:06:38;102278.00;;;12.25;100.00
64844;BME280;51310;52.198;5.422;2022-10-03T19:09:18;102274.25;;;12.30;100.00
64844;BME280;51310;52.198;5.422;2022-10-03T19:12:00;102279.41;;;12.30;100.00
64844;BME280;51310;52.198;5.422;2022-10-03T19:15:18;102272.06;;;12.26;100.00
64844;BME280;51310;52.198;5.422;2022-10-03T19:18:22;102274.66;;;12.26;100.00
64844;BME280;51310;52.198;5.422;2022-10-03T19:21:00;102272.63;;;12.31;100.00
64844;BME280;51310;52.198;5.422;2022-10-03T19:23:37;102266.00;;;12.26;100.00
64844;BME280;51310;52.198;5.422;2022-10-03T19:26:18;102264.09;;;12.32;100.00
64844;BME280;51310;52.198;5.422;2022-10-03T19:28:51;102271.16;;;12.26;100.00
64844;BME280;51310;52.198;5.422;2022-10-03T19:34:29;102270.03;;;12.31;100.00
64844;BME280;51310;52.198;5.422;2022-10-03T19:37:39;102274.84;;;12.28;100.00
64844;BME280;51310;52.198;5.422;2022-10-03T19:46:02;102271.53;;;12.29;100.00
64844;BME280;51310;52.198;5.422;2022-10-03T19:48:49;102262.69;;;12.27;100.00
64844;BME280;51310;52.198;5.422;2022-10-03T19:51:24;102264.69;;;12.29;100.00
64844;BME280;51310;52.198;5.422;2022-10-03T19:53:54;102256.56;;;12.26;100.00
64844;BME280;51310;52.198;5.422;2022-10-03T19:56:26;102260.09;;;12.27;100.00
64844;BME280;51310;52.198;5.422;2022-10-03T19:59:12;102262.84;;;12.28;100.00
64844;BME280;51310;52.198;5.422;2022-10-03T20:01:46;102266.00;;;12.26;100.00
64844;BME280;51310;52.198;5.422;2022-10-03T20:04:14;102268.19;;;12.30;100.00
64844;BME280;51310;52.198;5.422;2022-10-03T20:06:48;102270.03;;;12.31;100.00
64844;BME280;51310;52.198;5.422;2022-10-03T20:09:28;102266.97;;;12.19;100.00
64844;BME280;51310;52.198;5.422;2022-10-03T20:12:09;102269.03;;;12.15;100.00
64844;BME280;51310;52.198;5.422;2022-10-03T20:14:40;102275.28;;;12.17;100.00
64844;BME280;51310;52.198;5.422;2022-10-03T20:17:23;102277.47;;;12.21;100.00
64844;BME280;51310;52.198;5.422;2022-10-03T20:20:03;102282.84;;;12.15;100.00
64844;BME280;51310;52.198;5.422;2022-10-03T20:22:35;102278.59;;;12.16;100.00
64844;BME280;51310;52.198;5.422;2022-10-03T20:25:05;102274.78;;;12.12;100.00
64844;BME280;51310;52.198;5.422;2022-10-03T20:27:49;102277.63;;;11.99;100.00
64844;BME280;51310;52.198;5.422;2022-10-03T20:33:30;102280.94;;;11.98;100.00
64844;BME280;51310;52.198;5.422;2022-10-03T20:36:05;102282.25;;;11.95;100.00
64844;BME280;51310;52.198;5.422;2022-10-03T20:39:26;102283.72;;;11.85;100.00
64844;BME280;51310;52.198;5.422;2022-10-03T20:42:04;102275.47;;;11.81;100.00
64844;BME280;51310;52.198;5.422;2022-10-03T20:45:00;102270.94;;;11.71;100.00
64844;BME280;51310;52.198;5.422;2022-10-03T20:47:47;102270.25;;;11.58;100.00
64844;BME280;51310;52.198;5.422;2022-10-03T20:53:12;102260.66;;;11.57;100.00
64844;BME280;51310;52.198;5.422;2022-10-03T20:55:53;102259.56;;;11.55;100.00
64844;BME280;51310;52.198;5.422;2022-10-03T20:58:33;102257.75;;;11.54;100.00
64844;BME280;51310;52.198;5.422;2022-10-03T21:01:25;102253.56;;;11.47;100.00
64844;BME280;51310;52.198;5.422;2022-10-03T21:04:19;102255.94;;;11.45;100.00
64844;BME280;51310;52.198;5.422;2022-10-03T21:07:27;102250.41;;;11.49;100.00
64844;BME280;51310;52.198;5.422;2022-10-03T21:12:56;102250.41;;;11.49;100.00
64844;BME280;51310;52.198;5.422;2022-10-03T21:18:20;102253.50;;;11.54;100.00
64844;BME280;51310;52.198;5.422;2022-10-03T21:21:14;102246.91;;;11.49;100.00
64844;BME280;51310;52.198;5.422;2022-10-03T21:27:11;102244.34;;;11.49;100.00
64844;BME280;51310;52.198;5.422;2022-10-03T21:29:50;102245.63;;;11.45;100.00
64844;BME280;51310;52.198;5.422;2022-10-03T21:32:55;102243.78;;;11.44;100.00
64844;BME280;51310;52.198;5.422;2022-10-03T21:35:42;102242.53;;;11.41;100.00
64844;BME280;51310;52.198;5.422;2022-10-03T21:38:28;102235.50;;;11.40;100.00
64844;BME280;51310;52.198;5.422;2022-10-03T21:41:22;102225.91;;;11.46;100.00
64844;BME280;51310;52.198;5.422;2022-10-03T21:44:25;102232.34;;;11.49;100.00
64844;BME280;51310;52.198;5.422;2022-10-03T21:47:15;102229.22;;;11.52;100.00
64844;BME280;51310;52.198;5.422;2022-10-03T21:50:05;102222.56;;;11.54;100.00
64844;BME280;51310;52.198;5.422;2022-10-03T22:01:51;102219.56;;;11.65;100.00
64844;BME280;51310;52.198;5.422;2022-10-03T22:04:52;102219.16;;;11.69;100.00
64844;BME280;51310;52.198;5.422;2022-10-03T22:07:40;102211.09;;;11.66;100.00
64844;BME280;51310;52.198;5.422;2022-10-03T22:10:28;102208.38;;;11.58;100.00
64844;BME280;51310;52.198;5.422;2022-10-03T22:13:04;102197.69;;;11.55;100.00
64844;BME280;51310;52.198;5.422;2022-10-03T22:16:00;102199.88;;;11.59;100.00
64844;BME280;51310;52.198;5.422;2022-10-03T22:21:57;102190.47;;;11.59;100.00
64844;BME280;51310;52.198;5.422;2022-10-03T22:27:47;102180.69;;;11.64;100.00
64844;BME280;51310;52.198;5.422;2022-10-03T22:30:20;102173.38;;;11.60;100.00
64844;BME280;51310;52.198;5.422;2022-10-03T22:33:35;102166.94;;;11.56;100.00
64844;BME280;51310;52.198;5.422;2022-10-03T22:36:02;102166.19;;;11.57;100.00
64844;BME280;51310;52.198;5.422;2022-10-03T22:38:31;102165.66;;;11.53;100.00
64844;BME280;51310;52.198;5.422;2022-10-03T22:41:05;102164.13;;;11.62;100.00
64844;BME280;51310;52.198;5.422;2022-10-03T22:43:39;102163.91;;;11.67;100.00
64844;BME280;51310;52.198;5.422;2022-10-03T22:46:06;102165.75;;;11.68;100.00
64844;BME280;51310;52.198;5.422;2022-10-03T22:48:50;102164.47;;;11.65;100.00
64844;BME280;51310;52.198;5.422;2022-10-03T22:51:21;102160.41;;;11.67;100.00
64844;BME280;51310;52.198;5.422;2022-10-03T22:53:53;102162.22;;;11.68;100.00
64844;BME280;51310;52.198;5.422;2022-10-03T22:56:37;102161.84;;;11.72;100.00
64844;BME280;51310;52.198;5.422;2022-10-03T22:59:12;102162.03;;;11.74;100.00
64844;BME280;51310;52.198;5.422;2022-10-03T23:01:46;102156.00;;;11.66;100.00
64844;BME280;51310;52.198;5.422;2022-10-03T23:04:34;102160.06;;;11.64;100.00
64844;BME280;51310;52.198;5.422;2022-10-03T23:07:48;102162.41;;;11.69;100.00
64844;BME280;51310;52.198;5.422;2022-10-03T23:10:49;102165.19;;;11.71;100.00
64844;BME280;51310;52.198;5.422;2022-10-03T23:22:20;102161.69;;;11.70;100.00
64844;BME280;51310;52.198;5.422;2022-10-03T23:25:02;102156.53;;;11.70;100.00
64844;BME280;51310;52.198;5.422;2022-10-03T23:32:52;102148.44;;;11.67;100.00
64844;BME280;51310;52.198;5.422;2022-10-03T23:35:39;102151.19;;;11.69;100.00
64844;BME280;51310;52.198;5.422;2022-10-03T23:41:40;102146.94;;;11.69;100.00
64844;BME280;51310;52.198;5.422;2022-10-03T23:44:30;102147.34;;;11.65;100.00
64844;BME280;51310;52.198;5.422;2022-10-03T23:47:03;102139.41;;;11.64;100.00
64844;BME280;51310;52.198;5.422;2022-10-03T23:49:32;102133.03;;;11.60;100.00
64844;BME280;51310;52.198;5.422;2022-10-03T23:52:00;102129.16;;;11.57;100.00
64844;BME280;51310;52.198;5.422;2022-10-03T23:54:26;102135.59;;;11.60;100.00
64844;BME280;51310;52.198;5.422;2022-10-03T23:56:53;102132.84;;;11.59;100.00
64844;BME280;51310;52.198;5.422;2022-10-03T23:59:32;102124.91;;;11.57;100.00
